Weather at Ansbach-Petersdorf Airport

Public forecast

Using degrees Celsius for public forecast. Weather courtesy of forecast.io.

Closest aviation weather report (METAR) to Ansbach-Petersdorf Airport

Closest report is Ansbach Army Heliport, 3.4 nm (6.3 km) SSW. Retrieved 2020/10/01 17:56 UTC (44 minutes ago):

ETEB 011756Z AUTO 15005KT 9999 BKN043 14/14 A2966 RMK AO2 SLP060 T01390136 10161 20119 55002

Closest aviation forecast (TAF) to Ansbach-Petersdorf Airport

Closest forecast is Ansbach Army Heliport, 3.4 nm (6.3 km) SSW. Retrieved 2020/10/01 17:11 UTC (1 hour ago):

TAF ETEB 011700Z 0117/0223 18005KT 9000 -SHRA BKN030 OVC040 QNH2966INS BECMG 0119/0120 21005KT 9999 NSW BKN022 QNH2961INS BECMG 0123/0124 VRB03KT 9999 FEW025 BKN060 QNH2948INS BECMG 0208/0209 10009KT 9999 BKN080 QNH2942INS BECMG 0210/0211 09012G18KT 9999 BKN100 QNH2931INS TEMPO 0211/0216 09015G25KT BECMG 0216/0217 10009KT 9999 BKN120 QNH2924INS TX16/0214Z TN09/0204Z LAST NO AMDS AFT 0122 NEXT 0209